sensor_id;sensor_type;location;lat;lon;timestamp;temperature;humidity
7399;DHT22;3740;50.700;7.184;2022-09-29T00:00:09;10.20;99.90
7399;DHT22;3740;50.700;7.184;2022-09-29T00:02:34;10.20;99.90
7399;DHT22;3740;50.700;7.184;2022-09-29T00:05:00;10.20;99.90
7399;DHT22;3740;50.700;7.184;2022-09-29T00:07:27;10.00;99.90
7399;DHT22;3740;50.700;7.184;2022-09-29T00:09:53;9.90;99.90
7399;DHT22;3740;50.700;7.184;2022-09-29T00:12:18;9.90;99.90
7399;DHT22;3740;50.700;7.184;2022-09-29T00:14:44;10.00;99.90
7399;DHT22;3740;50.700;7.184;2022-09-29T00:17:10;10.10;99.90
7399;DHT22;3740;50.700;7.184;2022-09-29T00:19:35;10.10;99.90
7399;DHT22;3740;50.700;7.184;2022-09-29T00:22:01;9.90;99.90
7399;DHT22;3740;50.700;7.184;2022-09-29T00:24:26;9.80;99.90
7399;DHT22;3740;50.700;7.184;2022-09-29T00:26:52;9.90;99.90
7399;DHT22;3740;50.700;7.184;2022-09-29T00:29:18;9.90;99.90
7399;DHT22;3740;50.700;7.184;2022-09-29T00:31:43;9.90;99.90
7399;DHT22;3740;50.700;7.184;2022-09-29T00:34:09;9.80;99.90
7399;DHT22;3740;50.700;7.184;2022-09-29T00:36:35;9.50;99.90
7399;DHT22;3740;50.700;7.184;2022-09-29T00:39:00;9.50;99.90
7399;DHT22;3740;50.700;7.184;2022-09-29T00:41:35;9.60;99.90
7399;DHT22;3740;50.700;7.184;2022-09-29T00:46:50;9.70;99.90
7399;DHT22;3740;50.700;7.184;2022-09-29T00:49:23;9.50;99.90
7399;DHT22;3740;50.700;7.184;2022-09-29T00:51:58;9.40;99.90
7399;DHT22;3740;50.700;7.184;2022-09-29T00:54:26;9.50;99.90
7399;DHT22;3740;50.700;7.184;2022-09-29T00:56:55;9.50;99.90
7399;DHT22;3740;50.700;7.184;2022-09-29T00:59:29;9.60;99.90
7399;DHT22;3740;50.700;7.184;2022-09-29T01:01:56;9.60;99.90
7399;DHT22;3740;50.700;7.184;2022-09-29T01:04:22;9.50;99.90
7399;DHT22;3740;50.700;7.184;2022-09-29T01:06:52;9.40;99.90
7399;DHT22;3740;50.700;7.184;2022-09-29T01:09:24;9.50;99.90
7399;DHT22;3740;50.700;7.184;2022-09-29T01:11:51;9.60;99.90
7399;DHT22;3740;50.700;7.184;2022-09-29T01:14:22;9.60;99.90
7399;DHT22;3740;50.700;7.184;2022-09-29T01:16:48;9.60;99.90
7399;DHT22;3740;50.700;7.184;2022-09-29T01:19:27;9.40;99.90
7399;DHT22;3740;50.700;7.184;2022-09-29T01:22:06;9.40;99.90
7399;DHT22;3740;50.700;7.184;2022-09-29T01:27:35;9.50;99.90
7399;DHT22;3740;50.700;7.184;2022-09-29T01:33:11;9.40;99.90
7399;DHT22;3740;50.700;7.184;2022-09-29T01:38:57;9.40;99.90
7399;DHT22;3740;50.700;7.184;2022-09-29T01:41:48;9.50;99.90
7399;DHT22;3740;50.700;7.184;2022-09-29T01:44:36;9.50;99.90
7399;DHT22;3740;50.700;7.184;2022-09-29T01:47:33;9.50;99.90
7399;DHT22;3740;50.700;7.184;2022-09-29T01:50:27;9.30;99.90
7399;DHT22;3740;50.700;7.184;2022-09-29T01:52:57;9.40;99.90
7399;DHT22;3740;50.700;7.184;2022-09-29T01:55:27;9.40;99.90
7399;DHT22;3740;50.700;7.184;2022-09-29T01:58:11;9.40;99.90
7399;DHT22;3740;50.700;7.184;2022-09-29T02:00:48;9.40;99.90
7399;DHT22;3740;50.700;7.184;2022-09-29T02:03:37;9.20;99.90
7399;DHT22;3740;50.700;7.184;2022-09-29T02:06:23;9.20;99.90
7399;DHT22;3740;50.700;7.184;2022-09-29T02:08:53;9.20;99.90
7399;DHT22;3740;50.700;7.184;2022-09-29T02:11:19;9.30;99.90
7399;DHT22;3740;50.700;7.184;2022-09-29T02:13:51;9.30;99.90
7399;DHT22;3740;50.700;7.184;2022-09-29T02:16:22;9.20;99.90
7399;DHT22;3740;50.700;7.184;2022-09-29T02:18:59;9.00;99.90
7399;DHT22;3740;50.700;7.184;2022-09-29T02:21:26;9.00;99.90
7399;DHT22;3740;50.700;7.184;2022-09-29T02:23:52;9.10;99.90
7399;DHT22;3740;50.700;7.184;2022-09-29T02:26:19;9.20;99.90
7399;DHT22;3740;50.700;7.184;2022-09-29T02:28:46;9.20;99.90
7399;DHT22;3740;50.700;7.184;2022-09-29T02:31:12;9.00;99.90
7399;DHT22;3740;50.700;7.184;2022-09-29T02:33:38;8.90;99.90
7399;DHT22;3740;50.700;7.184;2022-09-29T02:41:49;9.20;99.90
7399;DHT22;3740;50.700;7.184;2022-09-29T02:52:30;9.30;99.90
7399;DHT22;3740;50.700;7.184;2022-09-29T02:55:18;9.40;99.90
7399;DHT22;3740;50.700;7.184;2022-09-29T02:57:47;9.60;99.90
7399;DHT22;3740;50.700;7.184;2022-09-29T03:00:16;9.60;99.90
7399;DHT22;3740;50.700;7.184;2022-09-29T03:02:42;9.60;99.90
7399;DHT22;3740;50.700;7.184;2022-09-29T03:05:17;9.60;99.90
7399;DHT22;3740;50.700;7.184;2022-09-29T03:07:43;9.70;99.90
7399;DHT22;3740;50.700;7.184;2022-09-29T03:10:10;9.80;99.90
7399;DHT22;3740;50.700;7.184;2022-09-29T03:12:36;9.80;99.90
7399;DHT22;3740;50.700;7.184;2022-09-29T03:15:03;9.70;99.90
7399;DHT22;3740;50.700;7.184;2022-09-29T03:17:29;9.50;99.90
7399;DHT22;3740;50.700;7.184;2022-09-29T03:19:55;9.60;99.90
7399;DHT22;3740;50.700;7.184;2022-09-29T03:22:22;9.70;99.90
7399;DHT22;3740;50.700;7.184;2022-09-29T03:24:47;9.80;99.90
7399;DHT22;3740;50.700;7.184;2022-09-29T03:27:13;9.80;99.90
7399;DHT22;3740;50.700;7.184;2022-09-29T03:29:39;9.60;99.90
7399;DHT22;3740;50.700;7.184;2022-09-29T03:32:05;9.50;99.90
7399;DHT22;3740;50.700;7.184;2022-09-29T03:34:31;9.60;99.90
7399;DHT22;3740;50.700;7.184;2022-09-29T03:36:57;9.70;99.90
7399;DHT22;3740;50.700;7.184;2022-09-29T03:39:23;9.80;99.90
7399;DHT22;3740;50.700;7.184;2022-09-29T03:41:49;9.80;99.90
7399;DHT22;3740;50.700;7.184;2022-09-29T03:44:15;9.70;99.90
7399;DHT22;3740;50.700;7.184;2022-09-29T03:46:41;9.60;99.90
7399;DHT22;3740;50.700;7.184;2022-09-29T03:49:09;9.60;99.90
7399;DHT22;3740;50.700;7.184;2022-09-29T03:51:36;9.70;99.90
7399;DHT22;3740;50.700;7.184;2022-09-29T03:54:02;9.80;99.90
7399;DHT22;3740;50.700;7.184;2022-09-29T03:56:27;9.80;99.90
7399;DHT22;3740;50.700;7.184;2022-09-29T03:58:53;9.60;99.90
7399;DHT22;3740;50.700;7.184;2022-09-29T04:01:18;9.60;99.90
7399;DHT22;3740;50.700;7.184;2022-09-29T04:03:44;9.60;99.90
7399;DHT22;3740;50.700;7.184;2022-09-29T04:06:10;9.70;99.90
7399;DHT22;3740;50.700;7.184;2022-09-29T04:08:36;9.80;99.90
7399;DHT22;3740;50.700;7.184;2022-09-29T04:11:02;9.70;99.90
7399;DHT22;3740;50.700;7.184;2022-09-29T04:13:28;9.60;99.90
7399;DHT22;3740;50.700;7.184;2022-09-29T04:15:58;9.60;99.90
7399;DHT22;3740;50.700;7.184;2022-09-29T04:18:24;9.60;99.90
7399;DHT22;3740;50.700;7.184;2022-09-29T04:20:50;9.70;99.90
7399;DHT22;3740;50.700;7.184;2022-09-29T04:23:16;9.70;99.90
7399;DHT22;3740;50.700;7.184;2022-09-29T04:25:43;9.70;99.90
7399;DHT22;3740;50.700;7.184;2022-09-29T04:28:12;9.60;99.90
7399;DHT22;3740;50.700;7.184;2022-09-29T04:30:37;9.50;99.90
7399;DHT22;3740;50.700;7.184;2022-09-29T04:33:03;9.60;99.90
7399;DHT22;3740;50.700;7.184;2022-09-29T04:35:28;9.60;99.90
7399;DHT22;3740;50.700;7.184;2022-09-29T04:37:57;9.70;99.90
7399;DHT22;3740;50.700;7.184;2022-09-29T04:40:24;9.70;99.90
7399;DHT22;3740;50.700;7.184;2022-09-29T04:42:50;9.70;99.90
7399;DHT22;3740;50.700;7.184;2022-09-29T04:45:16;9.80;99.90
7399;DHT22;3740;50.700;7.184;2022-09-29T04:47:41;9.80;99.90
7399;DHT22;3740;50.700;7.184;2022-09-29T04:50:07;9.60;99.90
7399;DHT22;3740;50.700;7.184;2022-09-29T04:52:34;9.60;99.90
7399;DHT22;3740;50.700;7.184;2022-09-29T04:55:01;9.60;99.90
7399;DHT22;3740;50.700;7.184;2022-09-29T04:57:27;9.70;99.90
7399;DHT22;3740;50.700;7.184;2022-09-29T04:59:53;9.70;99.90
7399;DHT22;3740;50.700;7.184;2022-09-29T05:02:18;9.70;99.90
7399;DHT22;3740;50.700;7.184;2022-09-29T05:04:44;9.60;99.90
7399;DHT22;3740;50.700;7.184;2022-09-29T05:07:12;9.60;99.90
7399;DHT22;3740;50.700;7.184;2022-09-29T05:09:38;9.70;99.90
7399;DHT22;3740;50.700;7.184;2022-09-29T05:12:03;9.70;99.90
7399;DHT22;3740;50.700;7.184;2022-09-29T05:14:29;9.80;99.90
7399;DHT22;3740;50.700;7.184;2022-09-29T05:16:55;9.60;99.90
7399;DHT22;3740;50.700;7.184;2022-09-29T05:19:20;9.50;99.90
7399;DHT22;3740;50.700;7.184;2022-09-29T05:21:46;9.50;99.90
7399;DHT22;3740;50.700;7.184;2022-09-29T05:24:12;9.60;99.90
7399;DHT22;3740;50.700;7.184;2022-09-29T05:26:37;9.60;99.90
7399;DHT22;3740;50.700;7.184;2022-09-29T05:29:03;9.60;99.90
7399;DHT22;3740;50.700;7.184;2022-09-29T05:31:29;9.60;99.90
7399;DHT22;3740;50.700;7.184;2022-09-29T05:33:55;9.30;99.90
7399;DHT22;3740;50.700;7.184;2022-09-29T05:36:22;9.30;99.90
7399;DHT22;3740;50.700;7.184;2022-09-29T05:38:47;9.40;99.90
7399;DHT22;3740;50.700;7.184;2022-09-29T05:41:14;9.40;99.90
7399;DHT22;3740;50.700;7.184;2022-09-29T05:43:49;9.50;99.90
7399;DHT22;3740;50.700;7.184;2022-09-29T05:46:15;9.30;99.90
7399;DHT22;3740;50.700;7.184;2022-09-29T05:48:42;9.20;99.90
7399;DHT22;3740;50.700;7.184;2022-09-29T05:51:12;9.20;99.90
7399;DHT22;3740;50.700;7.184;2022-09-29T05:53:39;9.20;99.90
7399;DHT22;3740;50.700;7.184;2022-09-29T05:56:07;9.30;99.90
7399;DHT22;3740;50.700;7.184;2022-09-29T05:58:34;9.30;99.90
7399;DHT22;3740;50.700;7.184;2022-09-29T06:01:07;9.30;99.90
7399;DHT22;3740;50.700;7.184;2022-09-29T06:03:34;9.10;99.90
7399;DHT22;3740;50.700;7.184;2022-09-29T06:06:14;9.20;99.90
7399;DHT22;3740;50.700;7.184;2022-09-29T06:08:42;9.30;99.90
7399;DHT22;3740;50.700;7.184;2022-09-29T06:11:11;9.40;99.90
7399;DHT22;3740;50.700;7.184;2022-09-29T06:13:41;9.50;99.90
7399;DHT22;3740;50.700;7.184;2022-09-29T06:16:08;9.50;99.90
7399;DHT22;3740;50.700;7.184;2022-09-29T06:18:34;9.50;99.90
7399;DHT22;3740;50.700;7.184;2022-09-29T06:21:08;9.40;99.90
7399;DHT22;3740;50.700;7.184;2022-09-29T06:23:34;9.50;99.90
7399;DHT22;3740;50.700;7.184;2022-09-29T06:26:01;9.60;99.90
7399;DHT22;3740;50.700;7.184;2022-09-29T06:28:29;9.70;99.90
7399;DHT22;3740;50.700;7.184;2022-09-29T06:33:26;9.70;99.90
7399;DHT22;3740;50.700;7.184;2022-09-29T06:35:52;9.90;99.90
7399;DHT22;3740;50.700;7.184;2022-09-29T06:38:36;10.00;99.90
7399;DHT22;3740;50.700;7.184;2022-09-29T06:41:02;10.30;99.90
7399;DHT22;3740;50.700;7.184;2022-09-29T06:43:27;10.40;99.90
7399;DHT22;3740;50.700;7.184;2022-09-29T06:45:53;10.50;99.90
7399;DHT22;3740;50.700;7.184;2022-09-29T06:48:18;10.50;99.90
7399;DHT22;3740;50.700;7.184;2022-09-29T06:50:44;10.50;99.90
7399;DHT22;3740;50.700;7.184;2022-09-29T06:53:10;10.60;99.90
7399;DHT22;3740;50.700;7.184;2022-09-29T06:55:35;10.60;99.90
7399;DHT22;3740;50.700;7.184;2022-09-29T06:58:01;10.50;99.90
7399;DHT22;3740;50.700;7.184;2022-09-29T07:00:26;10.60;99.90
7399;DHT22;3740;50.700;7.184;2022-09-29T07:02:52;10.60;99.90
7399;DHT22;3740;50.700;7.184;2022-09-29T07:05:19;10.60;99.90
7399;DHT22;3740;50.700;7.184;2022-09-29T07:07:47;10.70;99.90
7399;DHT22;3740;50.700;7.184;2022-09-29T07:10:12;10.70;99.90
7399;DHT22;3740;50.700;7.184;2022-09-29T07:12:38;10.70;99.90
7399;DHT22;3740;50.700;7.184;2022-09-29T07:15:04;10.70;99.90
7399;DHT22;3740;50.700;7.184;2022-09-29T07:17:29;10.60;99.90
7399;DHT22;3740;50.700;7.184;2022-09-29T07:19:55;10.40;99.90
7399;DHT22;3740;50.700;7.184;2022-09-29T07:22:21;10.50;99.90
7399;DHT22;3740;50.700;7.184;2022-09-29T07:24:47;10.50;99.90
7399;DHT22;3740;50.700;7.184;2022-09-29T07:27:15;10.40;99.90
7399;DHT22;3740;50.700;7.184;2022-09-29T07:29:43;10.20;99.90
7399;DHT22;3740;50.700;7.184;2022-09-29T07:32:09;10.30;99.90
7399;DHT22;3740;50.700;7.184;2022-09-29T07:34:52;10.30;99.90
7399;DHT22;3740;50.700;7.184;2022-09-29T07:37:18;10.40;99.90
7399;DHT22;3740;50.700;7.184;2022-09-29T07:39:43;10.40;99.90
7399;DHT22;3740;50.700;7.184;2022-09-29T07:42:09;10.30;99.90
7399;DHT22;3740;50.700;7.184;2022-09-29T07:44:34;10.40;99.90
7399;DHT22;3740;50.700;7.184;2022-09-29T07:47:00;10.40;99.90
7399;DHT22;3740;50.700;7.184;2022-09-29T07:49:25;10.40;99.90
7399;DHT22;3740;50.700;7.184;2022-09-29T07:51:51;10.50;99.90
7399;DHT22;3740;50.700;7.184;2022-09-29T07:54:16;10.50;99.90
7399;DHT22;3740;50.700;7.184;2022-09-29T07:56:42;10.60;99.90
7399;DHT22;3740;50.700;7.184;2022-09-29T07:59:11;10.60;99.90
7399;DHT22;3740;50.700;7.184;2022-09-29T08:01:37;10.60;99.90
7399;DHT22;3740;50.700;7.184;2022-09-29T08:04:02;10.70;99.90
7399;DHT22;3740;50.700;7.184;2022-09-29T08:06:28;10.90;99.90
7399;DHT22;3740;50.700;7.184;2022-09-29T08:08:54;10.90;99.90
7399;DHT22;3740;50.700;7.184;2022-09-29T08:11:20;10.90;99.90
7399;DHT22;3740;50.700;7.184;2022-09-29T08:13:47;10.80;99.90
7399;DHT22;3740;50.700;7.184;2022-09-29T08:16:13;10.70;99.90
7399;DHT22;3740;50.700;7.184;2022-09-29T08:18:40;10.70;99.90
7399;DHT22;3740;50.700;7.184;2022-09-29T08:21:06;10.50;99.90
7399;DHT22;3740;50.700;7.184;2022-09-29T08:23:36;10.40;99.90
7399;DHT22;3740;50.700;7.184;2022-09-29T08:26:10;10.50;99.90
7399;DHT22;3740;50.700;7.184;2022-09-29T08:28:37;10.60;99.90
7399;DHT22;3740;50.700;7.184;2022-09-29T08:31:05;10.60;99.90
7399;DHT22;3740;50.700;7.184;2022-09-29T08:33:32;10.70;99.90
7399;DHT22;3740;50.700;7.184;2022-09-29T08:35:59;10.60;99.90
7399;DHT22;3740;50.700;7.184;2022-09-29T08:38:26;10.60;99.90
7399;DHT22;3740;50.700;7.184;2022-09-29T08:40:53;10.60;99.90
7399;DHT22;3740;50.700;7.184;2022-09-29T08:43:30;10.60;99.90
7399;DHT22;3740;50.700;7.184;2022-09-29T08:46:01;10.60;99.90
7399;DHT22;3740;50.700;7.184;2022-09-29T08:48:31;10.70;99.90
7399;DHT22;3740;50.700;7.184;2022-09-29T08:51:03;10.80;99.90
7399;DHT22;3740;50.700;7.184;2022-09-29T08:53:31;10.80;99.90
7399;DHT22;3740;50.700;7.184;2022-09-29T08:56:06;10.70;99.90
7399;DHT22;3740;50.700;7.184;2022-09-29T08:58:34;10.70;99.90
7399;DHT22;3740;50.700;7.184;2022-09-29T09:01:15;10.70;99.90
7399;DHT22;3740;50.700;7.184;2022-09-29T09:03:59;10.80;99.90
7399;DHT22;3740;50.700;7.184;2022-09-29T09:19:57;11.40;99.90
7399;DHT22;3740;50.700;7.184;2022-09-29T09:25:31;11.60;99.90
7399;DHT22;3740;50.700;7.184;2022-09-29T09:28:05;11.70;99.90
7399;DHT22;3740;50.700;7.184;2022-09-29T09:36:07;12.00;99.90
7399;DHT22;3740;50.700;7.184;2022-09-29T09:38:43;12.10;99.90
7399;DHT22;3740;50.700;7.184;2022-09-29T09:41:21;12.30;99.90
7399;DHT22;3740;50.700;7.184;2022-09-29T09:44:18;12.20;99.90
7399;DHT22;3740;50.700;7.184;2022-09-29T09:46:57;12.20;99.90
7399;DHT22;3740;50.700;7.184;2022-09-29T09:49:31;12.30;99.90
7399;DHT22;3740;50.700;7.184;2022-09-29T09:52:03;12.40;99.90
7399;DHT22;3740;50.700;7.184;2022-09-29T09:54:39;12.50;99.90
7399;DHT22;3740;50.700;7.184;2022-09-29T09:57:13;12.60;99.90
7399;DHT22;3740;50.700;7.184;2022-09-29T10:02:30;12.80;99.90
7399;DHT22;3740;50.700;7.184;2022-09-29T10:04:56;12.90;99.90
7399;DHT22;3740;50.700;7.184;2022-09-29T10:07:24;13.10;99.90
7399;DHT22;3740;50.700;7.184;2022-09-29T10:09:51;13.40;99.90
7399;DHT22;3740;50.700;7.184;2022-09-29T10:12:19;13.60;99.90
7399;DHT22;3740;50.700;7.184;2022-09-29T10:14:56;13.70;99.90
7399;DHT22;3740;50.700;7.184;2022-09-29T10:17:29;14.20;99.90
7399;DHT22;3740;50.700;7.184;2022-09-29T10:20:03;15.20;99.90
7399;DHT22;3740;50.700;7.184;2022-09-29T10:22:30;17.50;99.90
7399;DHT22;3740;50.700;7.184;2022-09-29T10:27:54;22.70;99.90
7399;DHT22;3740;50.700;7.184;2022-09-29T10:30:33;24.60;95.50
7399;DHT22;3740;50.700;7.184;2022-09-29T10:33:01;26.10;91.40
7399;DHT22;3740;50.700;7.184;2022-09-29T10:35:35;27.10;86.10
7399;DHT22;3740;50.700;7.184;2022-09-29T10:38:05;28.70;80.70
7399;DHT22;3740;50.700;7.184;2022-09-29T10:40:31;30.40;79.00
7399;DHT22;3740;50.700;7.184;2022-09-29T10:42:57;30.50;72.60
7399;DHT22;3740;50.700;7.184;2022-09-29T10:45:25;29.70;73.10
7399;DHT22;3740;50.700;7.184;2022-09-29T10:50:29;27.10;73.00
7399;DHT22;3740;50.700;7.184;2022-09-29T10:53:00;26.10;76.40
7399;DHT22;3740;50.700;7.184;2022-09-29T10:55:31;24.80;78.40
7399;DHT22;3740;50.700;7.184;2022-09-29T10:58:08;24.10;81.60
7399;DHT22;3740;50.700;7.184;2022-09-29T11:00:44;23.40;87.50
7399;DHT22;3740;50.700;7.184;2022-09-29T11:06:13;22.30;90.70
7399;DHT22;3740;50.700;7.184;2022-09-29T11:08:59;21.90;90.80
7399;DHT22;3740;50.700;7.184;2022-09-29T11:11:28;21.70;90.00
7399;DHT22;3740;50.700;7.184;2022-09-29T11:13:55;21.60;92.90
7399;DHT22;3740;50.700;7.184;2022-09-29T11:16:32;22.10;93.30
7399;DHT22;3740;50.700;7.184;2022-09-29T11:19:07;22.30;91.60
7399;DHT22;3740;50.700;7.184;2022-09-29T11:24:46;24.20;87.90
7399;DHT22;3740;50.700;7.184;2022-09-29T11:30:10;27.10;77.20
7399;DHT22;3740;50.700;7.184;2022-09-29T11:38:19;27.80;77.40
7399;DHT22;3740;50.700;7.184;2022-09-29T11:41:06;27.90;76.70
7399;DHT22;3740;50.700;7.184;2022-09-29T11:43:59;28.00;75.70
7399;DHT22;3740;50.700;7.184;2022-09-29T11:46:51;28.50;75.30
7399;DHT22;3740;50.700;7.184;2022-09-29T11:57:48;28.90;72.20
7399;DHT22;3740;50.700;7.184;2022-09-29T12:00:19;29.40;72.90
7399;DHT22;3740;50.700;7.184;2022-09-29T12:05:53;30.70;68.80
7399;DHT22;3740;50.700;7.184;2022-09-29T12:11:06;29.60;70.50
7399;DHT22;3740;50.700;7.184;2022-09-29T12:13:43;28.00;71.40
7399;DHT22;3740;50.700;7.184;2022-09-29T12:16:14;26.50;72.30
7399;DHT22;3740;50.700;7.184;2022-09-29T12:21:33;23.60;84.30
7399;DHT22;3740;50.700;7.184;2022-09-29T12:24:05;22.60;88.20
7399;DHT22;3740;50.700;7.184;2022-09-29T12:26:33;22.00;89.50
7399;DHT22;3740;50.700;7.184;2022-09-29T12:29:05;21.30;91.30
7399;DHT22;3740;50.700;7.184;2022-09-29T12:31:39;20.80;91.90
7399;DHT22;3740;50.700;7.184;2022-09-29T12:45:51;19.40;97.70
7399;DHT22;3740;50.700;7.184;2022-09-29T12:48:26;19.70;94.90
7399;DHT22;3740;50.700;7.184;2022-09-29T12:51:12;19.60;96.30
7399;DHT22;3740;50.700;7.184;2022-09-29T12:53:59;20.00;95.60
7399;DHT22;3740;50.700;7.184;2022-09-29T12:56:37;20.00;94.70
7399;DHT22;3740;50.700;7.184;2022-09-29T12:59:28;20.00;95.70
7399;DHT22;3740;50.700;7.184;2022-09-29T13:01:56;20.40;94.70
7399;DHT22;3740;50.700;7.184;2022-09-29T13:10:54;21.10;93.30
7399;DHT22;3740;50.700;7.184;2022-09-29T13:13:44;21.20;93.40
7399;DHT22;3740;50.700;7.184;2022-09-29T13:16:41;21.30;91.90
7399;DHT22;3740;50.700;7.184;2022-09-29T13:22:20;21.50;91.20
7399;DHT22;3740;50.700;7.184;2022-09-29T13:25:16;21.30;90.00
7399;DHT22;3740;50.700;7.184;2022-09-29T13:27:47;21.20;91.90
7399;DHT22;3740;50.700;7.184;2022-09-29T13:30:17;21.00;91.10
7399;DHT22;3740;50.700;7.184;2022-09-29T13:33:30;20.80;91.50
7399;DHT22;3740;50.700;7.184;2022-09-29T13:35:37;20.90;92.20
7399;DHT22;3740;50.700;7.184;2022-09-29T13:38:06;21.00;92.00
7399;DHT22;3740;50.700;7.184;2022-09-29T13:40:32;21.20;91.00
7399;DHT22;3740;50.700;7.184;2022-09-29T13:42:59;21.40;90.70
7399;DHT22;3740;50.700;7.184;2022-09-29T13:58:34;20.70;83.90
7399;DHT22;3740;50.700;7.184;2022-09-29T14:01:03;20.50;80.70
7399;DHT22;3740;50.700;7.184;2022-09-29T14:03:41;20.10;83.40
7399;DHT22;3740;50.700;7.184;2022-09-29T14:06:14;19.50;81.30
7399;DHT22;3740;50.700;7.184;2022-09-29T14:08:59;19.10;84.00
7399;DHT22;3740;50.700;7.184;2022-09-29T14:11:37;18.60;85.90
7399;DHT22;3740;50.700;7.184;2022-09-29T14:14:17;18.30;89.70
7399;DHT22;3740;50.700;7.184;2022-09-29T14:16:52;18.10;89.50
7399;DHT22;3740;50.700;7.184;2022-09-29T14:19:32;17.90;90.80
7399;DHT22;3740;50.700;7.184;2022-09-29T14:22:00;17.90;91.30
7399;DHT22;3740;50.700;7.184;2022-09-29T14:35:26;18.00;90.70
7399;DHT22;3740;50.700;7.184;2022-09-29T14:38:07;18.10;91.90
7399;DHT22;3740;50.700;7.184;2022-09-29T14:40:34;17.90;90.00
7399;DHT22;3740;50.700;7.184;2022-09-29T14:43:20;17.70;90.30
7399;DHT22;3740;50.700;7.184;2022-09-29T14:45:59;17.60;90.40
7399;DHT22;3740;50.700;7.184;2022-09-29T14:51:59;17.70;90.00
7399;DHT22;3740;50.700;7.184;2022-09-29T14:54:51;17.70;90.50
7399;DHT22;3740;50.700;7.184;2022-09-29T15:00:20;17.70;88.20
7399;DHT22;3740;50.700;7.184;2022-09-29T15:02:49;17.80;86.20
7399;DHT22;3740;50.700;7.184;2022-09-29T15:05:31;17.70;84.40
7399;DHT22;3740;50.700;7.184;2022-09-29T15:07:59;17.80;85.10
7399;DHT22;3740;50.700;7.184;2022-09-29T15:10:28;17.70;85.20
7399;DHT22;3740;50.700;7.184;2022-09-29T15:13:20;17.70;88.40
7399;DHT22;3740;50.700;7.184;2022-09-29T15:15:47;17.70;84.50
7399;DHT22;3740;50.700;7.184;2022-09-29T15:21:31;17.60;84.40
7399;DHT22;3740;50.700;7.184;2022-09-29T15:24:14;17.60;84.80
7399;DHT22;3740;50.700;7.184;2022-09-29T15:26:46;17.50;84.60
7399;DHT22;3740;50.700;7.184;2022-09-29T15:29:16;17.30;86.50
7399;DHT22;3740;50.700;7.184;2022-09-29T15:31:43;17.10;90.40
7399;DHT22;3740;50.700;7.184;2022-09-29T15:34:20;17.00;90.40
7399;DHT22;3740;50.700;7.184;2022-09-29T15:36:49;16.90;91.50
7399;DHT22;3740;50.700;7.184;2022-09-29T15:42:00;16.70;93.10
7399;DHT22;3740;50.700;7.184;2022-09-29T15:44:28;16.60;93.80
7399;DHT22;3740;50.700;7.184;2022-09-29T15:46:57;16.50;93.70
7399;DHT22;3740;50.700;7.184;2022-09-29T15:49:27;16.50;95.00
7399;DHT22;3740;50.700;7.184;2022-09-29T15:51:59;16.50;95.00
7399;DHT22;3740;50.700;7.184;2022-09-29T15:54:28;16.30;95.20
7399;DHT22;3740;50.700;7.184;2022-09-29T15:56:55;16.20;95.80
7399;DHT22;3740;50.700;7.184;2022-09-29T15:59:42;16.00;96.40
7399;DHT22;3740;50.700;7.184;2022-09-29T16:02:37;15.90;97.10
7399;DHT22;3740;50.700;7.184;2022-09-29T16:05:11;15.80;97.00
7399;DHT22;3740;50.700;7.184;2022-09-29T16:07:46;15.80;97.20
7399;DHT22;3740;50.700;7.184;2022-09-29T16:10:19;15.70;98.50
7399;DHT22;3740;50.700;7.184;2022-09-29T16:12:57;15.60;97.60
7399;DHT22;3740;50.700;7.184;2022-09-29T16:15:34;16.40;98.90
7399;DHT22;3740;50.700;7.184;2022-09-29T16:18:17;15.60;98.30
7399;DHT22;3740;50.700;7.184;2022-09-29T16:20:45;15.50;99.90
7399;DHT22;3740;50.700;7.184;2022-09-29T16:23:40;15.40;99.90
7399;DHT22;3740;50.700;7.184;2022-09-29T16:28:38;15.20;99.90
7399;DHT22;3740;50.700;7.184;2022-09-29T16:31:16;15.10;99.90
7399;DHT22;3740;50.700;7.184;2022-09-29T16:33:51;14.90;99.90
7399;DHT22;3740;50.700;7.184;2022-09-29T16:38:52;14.80;99.90
7399;DHT22;3740;50.700;7.184;2022-09-29T16:41:33;14.70;99.90
7399;DHT22;3740;50.700;7.184;2022-09-29T16:49:15;14.20;99.90
7399;DHT22;3740;50.700;7.184;2022-09-29T16:51:46;14.10;99.90
7399;DHT22;3740;50.700;7.184;2022-09-29T16:54:19;14.10;99.90
7399;DHT22;3740;50.700;7.184;2022-09-29T16:56:47;14.10;99.90
7399;DHT22;3740;50.700;7.184;2022-09-29T16:59:16;14.00;99.90
7399;DHT22;3740;50.700;7.184;2022-09-29T17:01:43;13.90;99.90
7399;DHT22;3740;50.700;7.184;2022-09-29T17:04:11;13.80;99.90
7399;DHT22;3740;50.700;7.184;2022-09-29T17:06:45;13.60;99.90
7399;DHT22;3740;50.700;7.184;2022-09-29T17:09:16;13.60;99.90
7399;DHT22;3740;50.700;7.184;2022-09-29T17:11:42;13.60;99.90
7399;DHT22;3740;50.700;7.184;2022-09-29T17:14:10;13.60;99.90
7399;DHT22;3740;50.700;7.184;2022-09-29T17:16:37;13.60;99.90
7399;DHT22;3740;50.700;7.184;2022-09-29T17:19:08;13.50;99.90
7399;DHT22;3740;50.700;7.184;2022-09-29T17:21:34;13.50;99.90
7399;DHT22;3740;50.700;7.184;2022-09-29T17:24:00;13.40;99.90
7399;DHT22;3740;50.700;7.184;2022-09-29T17:26:34;13.40;99.90
7399;DHT22;3740;50.700;7.184;2022-09-29T17:29:19;13.30;99.90
7399;DHT22;3740;50.700;7.184;2022-09-29T17:31:45;13.20;99.90
7399;DHT22;3740;50.700;7.184;2022-09-29T17:34:10;13.10;99.90
7399;DHT22;3740;50.700;7.184;2022-09-29T17:36:37;13.10;99.90
7399;DHT22;3740;50.700;7.184;2022-09-29T17:39:04;13.00;99.90
7399;DHT22;3740;50.700;7.184;2022-09-29T17:41:29;12.80;99.90
7399;DHT22;3740;50.700;7.184;2022-09-29T17:43:56;12.70;99.90
7399;DHT22;3740;50.700;7.184;2022-09-29T17:46:22;12.80;99.90
7399;DHT22;3740;50.700;7.184;2022-09-29T17:49:16;12.80;99.90
7399;DHT22;3740;50.700;7.184;2022-09-29T17:52:04;12.80;99.90
7399;DHT22;3740;50.700;7.184;2022-09-29T17:54:55;12.50;99.90
7399;DHT22;3740;50.700;7.184;2022-09-29T17:57:45;12.50;99.90
7399;DHT22;3740;50.700;7.184;2022-09-29T18:00:37;12.50;99.90
7399;DHT22;3740;50.700;7.184;2022-09-29T18:03:29;12.60;99.90
7399;DHT22;3740;50.700;7.184;2022-09-29T18:06:21;12.50;99.90
7399;DHT22;3740;50.700;7.184;2022-09-29T18:09:15;12.40;99.90
7399;DHT22;3740;50.700;7.184;2022-09-29T18:12:07;12.40;99.90
7399;DHT22;3740;50.700;7.184;2022-09-29T18:14:56;12.50;99.90
7399;DHT22;3740;50.700;7.184;2022-09-29T18:17:48;12.50;99.90
7399;DHT22;3740;50.700;7.184;2022-09-29T18:20:39;12.50;99.90
7399;DHT22;3740;50.700;7.184;2022-09-29T18:23:31;12.50;99.90
7399;DHT22;3740;50.700;7.184;2022-09-29T18:26:23;12.40;99.90
7399;DHT22;3740;50.700;7.184;2022-09-29T18:29:17;12.40;99.90
7399;DHT22;3740;50.700;7.184;2022-09-29T18:32:10;12.40;99.90
7399;DHT22;3740;50.700;7.184;2022-09-29T18:35:09;12.30;99.90
7399;DHT22;3740;50.700;7.184;2022-09-29T18:38:00;12.10;99.90
7399;DHT22;3740;50.700;7.184;2022-09-29T18:40:52;12.10;99.90
7399;DHT22;3740;50.700;7.184;2022-09-29T18:43:40;12.10;99.90
7399;DHT22;3740;50.700;7.184;2022-09-29T18:46:05;12.10;99.90
7399;DHT22;3740;50.700;7.184;2022-09-29T18:48:31;12.10;99.90
7399;DHT22;3740;50.700;7.184;2022-09-29T18:50:56;12.10;99.90
7399;DHT22;3740;50.700;7.184;2022-09-29T18:53:22;12.00;99.90
7399;DHT22;3740;50.700;7.184;2022-09-29T18:55:48;12.00;99.90
7399;DHT22;3740;50.700;7.184;2022-09-29T18:58:17;11.90;99.90
7399;DHT22;3740;50.700;7.184;2022-09-29T19:00:51;11.90;99.90
7399;DHT22;3740;50.700;7.184;2022-09-29T19:03:19;12.00;99.90
7399;DHT22;3740;50.700;7.184;2022-09-29T19:05:45;11.90;99.90
7399;DHT22;3740;50.700;7.184;2022-09-29T19:08:14;11.80;99.90
7399;DHT22;3740;50.700;7.184;2022-09-29T19:10:55;11.80;99.90
7399;DHT22;3740;50.700;7.184;2022-09-29T19:13:22;11.80;99.90